Kingston, WA (98346)

5:23 PM PDT on September 01, 2015 (GMT -0700)
KWAKINGS19 | | Change Station
CLOSE
Current Station
Personal Weather Station
Location: Kingston, WA
Elevation: 200 ft
Nearby Weather Stations

Elev 200 ft 47.79 °N, 122.55 °W | Updated 17 seconds ago

Overcast
Overcast
63.0 °F
Feels Like 63.0 °F
N
2.3
Wind Variable Wind from SSE
Gusts 2.3 mph

Today
High -- | Low -- °F
--% Chance of Precip.
Yesterday
High -- | Low -- °F
Precip. -- in
6:28 AM 7:51 PM
Waning Gibbous, 85% visible
Pressure 29.79 in
Visibility 10.0 miles
Clouds Few 1200 ft
Scattered Clouds 9000 ft
Dew Point 56 °F
Humidity 79%
Rainfall 0.04 in
Snow Depth Not available.
UV 2 out of 12
Pollen .40 out of 12
Air Quality Not available.
Flu Activity Not available.
METAR KPAE 012353Z 17009KT 10SM FEW012 SCT090 16/12 A2980 RMK AO2 SLP088 60000 T01610122 10178 20150 56013
Pressure 29.79 in
Visibility 10.0 miles
Clouds Few 1200 ft
Scattered Clouds 9000 ft
Dew Point 56 °F
Humidity 79%
Rainfall 0.04 in
Snow Depth Not available.
UV 2 out of 12
Pollen .40 out of 12
Air Quality Not available.
Flu Activity Not available.
METAR KPAE 012353Z 17009KT 10SM FEW012 SCT090 16/12 A2980 RMK AO2 SLP088 60000 T01610122 10178 20150 56013

10-Day Weather Forecast

×

Almanac

Astronomy

Sep. 01, 2015 Rise Set
Actual Time
Civil Twilight
Nautical Twilight
Astronomical Twilight
Moon
Length of Visible Light
Length of Day
Tomorrow will be .
, % of the Moon is Illuminated

Today's Extremes

State Highs State Lows

Community

WunderPhotos

Upload Photos

1,851,657 photos uploaded!

WunderBlogs® & News

Nearby

Air Quality

  Air Quality AQ Index Pollutant
Not available.

Snow Depth

Station Depth Elevation

Earthquake Activity

City Distance Mag. Time & Date
Minimum magnitude displayed is 2.5.

Coastal Water Temperatures

Place Temperature

Stations

Nearby Weather Stations

Station Location Temp. Windchill Dew Point Humidity Wind Precip. Elev Updated Type